Time;durP1;ratioP1;P1;durP2;ratioP2;P2;SDS_P1;SDS_P2;PMS_P1;PMS_P2;Temp;Humidity;BMP_temperature;BMP_pressure;BME280_temperature;BME280_humidity;BME280_pressure;Samples;Min_cycle;Max_cycle;Signal;HPM_P1;HPM_P2
2021/06/02 00:02:11;;;;;;;24.58;7.72;;;;;;;;;;5072785;28;20094;-44
2021/06/02 00:04:44;;;;;;;12.35;7.25;;;;;;;;;;5075434;28;20028;-42
2021/06/02 00:07:14;;;;;;;18.70;9.35;;;;;;;;;;5076727;28;20128;-44
2021/06/02 00:09:40;;;;;;;31.17;17.50;;;;;;;;;;5076429;28;20372;-44
2021/06/02 00:12:07;;;;;;;35.72;19.13;;;;;;;;;;5075986;28;20017;-42
2021/06/02 00:14:36;;;;;;;62.38;35.75;;;;;;;;;;5076149;28;20028;-43
2021/06/02 00:17:04;;;;;;;41.58;23.67;;;;;;;;;;5076734;28;20025;-42
2021/06/02 00:19:31;;;;;;;24.90;13.00;;;;;;;;;;5076075;28;20016;-43
2021/06/02 00:21:58;;;;;;;21.48;13.13;;;;;;;;;;5076221;28;20033;-43
2021/06/02 00:24:25;;;;;;;45.38;25.35;;;;;;;;;;5076097;28;20039;-43
2021/06/02 00:26:58;;;;;;;18.27;9.15;;;;;;;;;;5076135;28;20100;-44
2021/06/02 00:29:26;;;;;;;27.08;15.93;;;;;;;;;;5076332;28;20025;-50
2021/06/02 00:31:53;;;;;;;23.75;15.98;;;;;;;;;;5076028;28;20456;-44
2021/06/02 00:34:19;;;;;;;25.55;16.08;;;;;;;;;;5075864;28;20029;-42
2021/06/02 00:36:45;;;;;;;95.97;50.33;;;;;;;;;;5075998;28;20033;-45
2021/06/02 00:39:13;;;;;;;63.00;31.02;;;;;;;;;;5075916;28;20032;-45
2021/06/02 00:41:41;;;;;;;35.08;22.35;;;;;;;;;;5075630;28;20028;-43
2021/06/02 00:44:08;;;;;;;45.97;27.95;;;;;;;;;;5057468;28;20560;-42
2021/06/02 00:46:37;;;;;;;44.92;25.92;;;;;;;;;;5075722;28;20025;-43
2021/06/02 00:49:04;;;;;;;22.65;12.07;;;;;;;;;;5057357;28;20369;-46
2021/06/02 00:51:30;;;;;;;19.95;12.38;;;;;;;;;;5075627;28;20040;-44
2021/06/02 00:53:57;;;;;;;47.55;27.38;;;;;;;;;;5075495;28;20028;-43
2021/06/02 00:56:32;;;;;;;33.83;19.83;;;;;;;;;;5075364;28;20123;-41
2021/06/02 00:59:04;;;;;;;28.05;17.88;;;;;;;;;;5075431;28;20095;-40
2021/06/02 01:01:34;;;;;;;84.88;47.17;;;;;;;;;;5075313;28;20028;-41
2021/06/02 01:04:01;;;;;;;38.10;24.48;;;;;;;;;;5075263;28;20033;-42
2021/06/02 01:06:28;;;;;;;46.08;28.98;;;;;;;;;;5075247;28;20021;-41
2021/06/02 01:08:58;;;;;;;45.08;28.25;;;;;;;;;;5074973;28;20024;-40
2021/06/02 01:11:25;;;;;;;38.67;27.98;;;;;;;;;;5075466;28;20020;-41
2021/06/02 01:13:52;;;;;;;50.13;33.65;;;;;;;;;;5075144;28;20027;-41
2021/06/02 01:16:19;;;;;;;44.33;30.83;;;;;;;;;;5075253;28;20017;-41
2021/06/02 01:18:45;;;;;;;47.03;32.63;;;;;;;;;;5075238;28;20380;-41
2021/06/02 01:21:18;;;;;;;30.50;20.40;;;;;;;;;;5075394;28;20036;-41
2021/06/02 01:23:44;;;;;;;31.85;15.32;;;;;;;;;;5075011;28;20055;-42
2021/06/02 01:26:11;;;;;;;55.35;31.88;;;;;;;;;;5074924;28;20025;-42
2021/06/02 01:28:37;;;;;;;64.03;37.63;;;;;;;;;;5074902;28;20070;-42
2021/06/02 01:31:07;;;;;;;83.50;51.60;;;;;;;;;;5074873;28;20024;-42
2021/06/02 01:33:56;;;;;;;73.18;43.83;;;;;;;;;;5074978;28;20029;-42
2021/06/02 01:36:31;;;;;;;60.53;35.72;;;;;;;;;;5074504;28;20028;-40
2021/06/02 01:39:18;;;;;;;54.03;33.58;;;;;;;;;;5074644;28;20024;-43
2021/06/02 01:41:44;;;;;;;28.35;17.42;;;;;;;;;;5074756;28;20025;-42
2021/06/02 01:44:19;;;;;;;33.33;22.15;;;;;;;;;;5074678;28;20036;-42
2021/06/02 01:46:57;;;;;;;32.03;20.35;;;;;;;;;;5074401;28;20024;-42
2021/06/02 01:49:23;;;;;;;21.77;13.40;;;;;;;;;;5074312;28;20027;-42
2021/06/02 01:51:52;;;;;;;19.90;11.88;;;;;;;;;;5074129;28;20550;-42
2021/06/02 01:54:22;;;;;;;20.20;11.70;;;;;;;;;;5074360;28;20024;-43
2021/06/02 01:57:06;;;;;;;17.13;11.18;;;;;;;;;;5056353;28;20029;-43
2021/06/02 01:59:54;;;;;;;14.73;8.82;;;;;;;;;;5074300;28;20029;-43
2021/06/02 02:02:40;;;;;;;13.75;8.40;;;;;;;;;;5074278;28;20028;-43
2021/06/02 02:05:09;;;;;;;15.30;9.70;;;;;;;;;;5074009;28;20029;-43
2021/06/02 02:07:54;;;;;;;14.88;9.13;;;;;;;;;;5074217;28;20056;-43
2021/06/02 02:10:32;;;;;;;10.55;7.20;;;;;;;;;;5074212;28;20385;-43
2021/06/02 02:12:59;;;;;;;13.10;7.20;;;;;;;;;;5074095;28;20463;-42
2021/06/02 02:15:43;;;;;;;9.65;5.80;;;;;;;;;;5074292;28;20063;-42
2021/06/02 02:18:21;;;;;;;8.55;6.13;;;;;;;;;;5074120;28;20017;-41
2021/06/02 02:20:56;;;;;;;9.35;6.40;;;;;;;;;;5073668;28;20027;-41
2021/06/02 02:23:25;;;;;;;9.18;6.07;;;;;;;;;;5073988;28;20051;-41
2021/06/02 02:25:59;;;;;;;13.60;7.50;;;;;;;;;;5073550;28;20073;-43
2021/06/02 02:28:40;;;;;;;8.13;5.90;;;;;;;;;;5073798;28;20366;-42
2021/06/02 02:31:25;;;;;;;11.10;6.78;;;;;;;;;;5073663;28;20024;-43
2021/06/02 02:33:59;;;;;;;8.30;5.68;;;;;;;;;;5073848;28;20024;-43
2021/06/02 02:36:39;;;;;;;11.65;6.18;;;;;;;;;;5073805;28;20028;-43
2021/06/02 02:39:37;;;;;;;11.23;6.03;;;;;;;;;;5073719;28;20025;-43
2021/06/02 02:42:07;;;;;;;13.40;6.13;;;;;;;;;;5012186;28;20767;-42
2021/06/02 02:44:39;;;;;;;11.85;5.95;;;;;;;;;;5011759;28;20045;-43
2021/06/02 02:47:24;;;;;;;13.93;5.55;;;;;;;;;;5011835;28;20037;-43
2021/06/02 02:49:55;;;;;;;11.65;6.47;;;;;;;;;;5011682;28;20058;-43
2021/06/02 02:52:23;;;;;;;;;;;;;;;;;;5012268;28;20050;-40
2021/06/02 02:55:21;;;;;;;10.23;6.53;;;;;;;;;;5011683;28;19906;-42
2021/06/02 02:57:54;;;;;;;10.50;6.50;;;;;;;;;;4953453;29;20036;-41
2021/06/02 03:00:22;;;;;;;13.02;6.82;;;;;;;;;;4953480;28;20035;-41
2021/06/02 03:03:09;;;;;;;13.50;6.90;;;;;;;;;;4953443;29;20169;-42
2021/06/02 03:05:38;;;;;;;8.77;6.03;;;;;;;;;;4953249;29;20043;-42
2021/06/02 03:08:12;;;;;;;16.15;5.53;;;;;;;;;;4953473;29;20039;-41
2021/06/02 03:10:40;;;;;;;6.82;5.30;;;;;;;;;;4953255;29;20043;-42
2021/06/02 03:13:33;;;;;;;10.93;5.78;;;;;;;;;;4953070;28;20480;-43
2021/06/02 03:16:03;;;;;;;9.88;5.25;;;;;;;;;;4949873;29;20046;-42
2021/06/02 03:18:35;;;;;;;8.55;5.65;;;;;;;;;;5001546;28;20433;-43
2021/06/02 03:21:01;;;;;;;;;;;;;;;;;;5011740;28;20100;-42
2021/06/02 03:23:45;;;;;;;10.98;4.93;;;;;;;;;;5011257;28;19922;-43
2021/06/02 03:26:13;;;;;;;6.97;4.82;;;;;;;;;;5011514;28;20034;-41
2021/06/02 03:28:49;;;;;;;8.02;5.30;;;;;;;;;;5011712;28;20466;-43
2021/06/02 03:31:23;;;;;;;10.88;5.50;;;;;;;;;;5011482;28;20625;-43
2021/06/02 03:33:49;;;;;;;14.32;5.60;;;;;;;;;;5052895;28;20041;-43
2021/06/02 03:36:34;;;;;;;10.68;5.78;;;;;;;;;;5072864;28;20104;-43
2021/06/02 03:39:06;;;;;;;19.83;5.93;;;;;;;;;;5074864;28;20024;-43
2021/06/02 03:41:32;;;;;;;13.95;6.10;;;;;;;;;;5077063;28;20074;-42
2021/06/02 03:44:17;;;;;;;14.23;5.82;;;;;;;;;;5076943;28;20033;-42
2021/06/02 03:47:04;;;;;;;15.70;5.55;;;;;;;;;;5076724;28;20055;-42
2021/06/02 03:49:52;;;;;;;9.95;5.18;;;;;;;;;;5076825;28;20024;-42
2021/06/02 03:52:36;;;;;;;11.65;5.25;;;;;;;;;;5076742;28;20512;-41
2021/06/02 03:55:08;;;;;;;8.07;5.03;;;;;;;;;;5076580;28;20024;-43
2021/06/02 03:57:34;;;;;;;9.05;5.05;;;;;;;;;;5076727;28;20146;-42
2021/06/02 04:00:09;;;;;;;9.48;5.30;;;;;;;;;;5076586;28;20539;-42
2021/06/02 04:02:35;;;;;;;8.30;5.10;;;;;;;;;;5076433;28;20032;-43
2021/06/02 04:05:10;;;;;;;8.05;4.63;;;;;;;;;;5076396;28;20090;-43
2021/06/02 04:07:45;;;;;;;12.63;4.80;;;;;;;;;;5076552;28;20080;-42
2021/06/02 04:10:19;;;;;;;9.57;4.60;;;;;;;;;;5076466;28;20056;-43
2021/06/02 04:12:45;;;;;;;10.38;4.72;;;;;;;;;;5076627;28;20052;-42
2021/06/02 04:15:12;;;;;;;12.70;4.65;;;;;;;;;;5076396;28;20024;-42
2021/06/02 04:17:39;;;;;;;9.50;5.60;;;;;;;;;;5076503;28;20516;-41
2021/06/02 04:20:06;;;;;;;13.32;4.57;;;;;;;;;;5075924;28;20085;-41
2021/06/02 04:22:33;;;;;;;17.00;4.68;;;;;;;;;;5076303;28;20082;-43
2021/06/02 04:25:04;;;;;;;12.93;6.13;;;;;;;;;;5076432;28;20107;-43
2021/06/02 04:27:34;;;;;;;9.68;5.28;;;;;;;;;;5076366;28;20074;-41
2021/06/02 04:30:02;;;;;;;10.00;5.07;;;;;;;;;;5076285;28;20064;-42
2021/06/02 04:32:33;;;;;;;8.80;4.25;;;;;;;;;;5076032;28;20027;-42
2021/06/02 04:35:00;;;;;;;6.97;4.47;;;;;;;;;;5076151;28;20032;-42
2021/06/02 04:37:26;;;;;;;9.18;4.55;;;;;;;;;;5076211;28;20024;-42
2021/06/02 04:39:53;;;;;;;14.10;4.80;;;;;;;;;;5076203;28;20032;-42
2021/06/02 04:42:20;;;;;;;6.35;4.18;;;;;;;;;;5075740;28;20017;-42
2021/06/02 04:44:50;;;;;;;9.82;4.50;;;;;;;;;;5075856;28;20107;-42
2021/06/02 04:47:18;;;;;;;8.30;4.05;;;;;;;;;;5076036;28;20021;-42
2021/06/02 04:49:59;;;;;;;7.38;4.30;;;;;;;;;;5075555;28;20029;-43
2021/06/02 04:52:34;;;;;;;7.38;3.85;;;;;;;;;;5075681;28;20551;-45
2021/06/02 04:55:19;;;;;;;6.20;3.47;;;;;;;;;;5075685;28;20049;-41
2021/06/02 04:57:54;;;;;;;4.40;3.38;;;;;;;;;;5075686;28;20115;-41
2021/06/02 05:00:39;;;;;;;10.93;3.50;;;;;;;;;;5075440;28;20119;-42
2021/06/02 05:03:17;;;;;;;9.48;3.35;;;;;;;;;;5075356;28;20033;-44
2021/06/02 05:06:01;;;;;;;4.07;3.22;;;;;;;;;;5075420;28;20082;-44
2021/06/02 05:08:56;;;;;;;7.07;3.55;;;;;;;;;;5057251;28;20048;-43
2021/06/02 05:11:41;;;;;;;9.30;3.38;;;;;;;;;;5057216;28;20021;-43
2021/06/02 05:14:25;;;;;;;5.22;3.30;;;;;;;;;;5075153;28;20164;-43
2021/06/02 05:17:10;;;;;;;11.73;4.55;;;;;;;;;;5075072;28;20528;-43
2021/06/02 05:22:24;;;;;;;9.60;4.82;;;;;;;;;;5074881;28;20120;-43
2021/06/02 05:25:08;;;;;;;12.05;5.35;;;;;;;;;;5074921;28;20037;-43
2021/06/02 05:27:52;;;;;;;14.52;6.50;;;;;;;;;;5075000;28;20021;-43
2021/06/02 05:30:25;;;;;;;11.32;5.65;;;;;;;;;;5075151;28;20103;-42
2021/06/02 05:33:06;;;;;;;10.52;5.63;;;;;;;;;;5075575;28;20457;-43
2021/06/02 05:35:35;;;;;;;14.48;5.85;;;;;;;;;;5074761;28;20024;-43
2021/06/02 05:38:19;;;;;;;10.55;4.90;;;;;;;;;;5074649;28;20544;-42
2021/06/02 05:40:49;;;;;;;16.25;6.82;;;;;;;;;;5074791;28;20507;-43
2021/06/02 05:43:32;;;;;;;14.52;6.95;;;;;;;;;;5074685;28;20068;-44
2021/06/02 05:46:16;;;;;;;13.68;6.55;;;;;;;;;;5074545;28;20023;-42
2021/06/02 05:49:03;;;;;;;7.32;5.30;;;;;;;;;;5074494;28;20021;-43
2021/06/02 05:51:41;;;;;;;10.32;4.57;;;;;;;;;;5073966;28;20044;-42
2021/06/02 05:54:26;;;;;;;14.23;7.30;;;;;;;;;;5074548;28;20032;-43
2021/06/02 05:57:11;;;;;;;13.00;7.05;;;;;;;;;;5074188;28;20476;-43
2021/06/02 05:59:55;;;;;;;20.65;12.18;;;;;;;;;;5074247;28;20024;-43
2021/06/02 06:02:36;;;;;;;21.55;11.40;;;;;;;;;;5073526;28;20020;-44
2021/06/02 06:05:11;;;;;;;13.07;7.00;;;;;;;;;;5074120;28;20033;-43
2021/06/02 06:07:37;;;;;;;16.00;6.57;;;;;;;;;;5056579;28;20021;-43
2021/06/02 06:10:10;;;;;;;18.73;8.75;;;;;;;;;;5074209;28;20110;-44
2021/06/02 06:12:48;;;;;;;22.10;12.25;;;;;;;;;;5074267;28;20017;-50
2021/06/02 06:15:14;;;;;;;20.23;10.30;;;;;;;;;;5074163;28;20029;-43
2021/06/02 06:17:43;;;;;;;14.65;8.23;;;;;;;;;;5073959;28;20522;-43
2021/06/02 06:20:13;;;;;;;11.85;6.97;;;;;;;;;;5073732;28;20029;-44
2021/06/02 06:23:02;;;;;;;15.70;9.82;;;;;;;;;;5073704;28;20036;-43
2021/06/02 06:25:45;;;;;;;10.13;6.03;;;;;;;;;;5073665;28;20373;-43
2021/06/02 06:28:29;;;;;;;13.35;9.05;;;;;;;;;;5073603;28;20147;-44
2021/06/02 06:30:57;;;;;;;12.13;7.93;;;;;;;;;;5073728;28;20073;-43
2021/06/02 06:33:26;;;;;;;11.80;5.47;;;;;;;;;;5073702;28;20150;-42
2021/06/02 06:35:52;;;;;;;47.22;28.67;;;;;;;;;;5073438;28;20336;-43
2021/06/02 06:38:23;;;;;;;95.28;59.13;;;;;;;;;;5073495;28;20024;-45
2021/06/02 06:40:52;;;;;;;63.20;37.65;;;;;;;;;;5073431;28;20104;-44
2021/06/02 06:43:19;;;;;;;62.72;36.85;;;;;;;;;;5073512;28;20043;-44
2021/06/02 06:45:46;;;;;;;77.97;51.45;;;;;;;;;;5073194;28;20074;-44
2021/06/02 06:48:16;;;;;;;75.82;45.05;;;;;;;;;;5072928;28;20090;-43
2021/06/02 06:50:45;;;;;;;36.75;22.80;;;;;;;;;;5072351;28;20027;-45
2021/06/02 06:53:12;;;;;;;28.95;15.32;;;;;;;;;;5072849;28;20039;-45
2021/06/02 06:55:39;;;;;;;181.10;109.53;;;;;;;;;;5072628;28;20515;-46
2021/06/02 06:58:06;;;;;;;335.00;214.98;;;;;;;;;;5069974;28;20032;-45
2021/06/02 07:00:32;;;;;;;92.63;54.58;;;;;;;;;;5072940;28;20017;-46
2021/06/02 07:02:59;;;;;;;107.30;55.78;;;;;;;;;;5072844;28;20048;-46
2021/06/02 07:05:26;;;;;;;208.45;144.98;;;;;;;;;;5069926;28;20050;-47
2021/06/02 07:07:53;;;;;;;204.73;134.05;;;;;;;;;;5071925;28;20017;-45
2021/06/02 07:10:21;;;;;;;55.88;36.83;;;;;;;;;;5072284;28;20074;-45
2021/06/02 07:12:47;;;;;;;54.58;37.60;;;;;;;;;;5072485;28;20016;-44
2021/06/02 07:15:14;;;;;;;115.53;72.15;;;;;;;;;;5072633;28;20017;-45
2021/06/02 07:17:43;;;;;;;87.80;54.92;;;;;;;;;;5072489;28;20028;-46
2021/06/02 07:20:10;;;;;;;110.20;62.92;;;;;;;;;;5069853;28;20027;-45
2021/06/02 07:22:42;;;;;;;43.65;21.67;;;;;;;;;;5072373;28;20081;-45
2021/06/02 07:25:09;;;;;;;42.90;26.70;;;;;;;;;;5069767;28;20035;-44
2021/06/02 07:27:37;;;;;;;149.88;90.75;;;;;;;;;;5072608;28;20350;-44
2021/06/02 07:30:05;;;;;;;50.20;32.72;;;;;;;;;;5072071;28;20111;-44
2021/06/02 07:32:31;;;;;;;54.97;36.22;;;;;;;;;;5072054;28;20103;-44
2021/06/02 07:34:57;;;;;;;114.55;77.28;;;;;;;;;;5072198;28;20021;-42
2021/06/02 07:37:23;;;;;;;31.85;19.88;;;;;;;;;;5071845;28;20031;-44
2021/06/02 07:39:49;;;;;;;13.98;6.07;;;;;;;;;;5071700;28;20074;-45
2021/06/02 07:42:16;;;;;;;32.58;21.55;;;;;;;;;;5072134;28;20025;-45
2021/06/02 07:44:42;;;;;;;22.35;13.13;;;;;;;;;;5072218;28;20044;-44
2021/06/02 07:47:08;;;;;;;32.83;22.23;;;;;;;;;;5072296;28;20107;-44
2021/06/02 07:49:34;;;;;;;22.35;12.95;;;;;;;;;;5072451;28;20419;-45
2021/06/02 07:52:01;;;;;;;31.52;20.02;;;;;;;;;;5071851;28;20078;-44
2021/06/02 07:54:27;;;;;;;24.33;14.70;;;;;;;;;;5072103;28;20033;-44
2021/06/02 07:56:54;;;;;;;70.03;43.75;;;;;;;;;;5072599;28;20028;-43
2021/06/02 07:59:20;;;;;;;53.45;25.88;;;;;;;;;;5072560;28;20029;-45
2021/06/02 08:01:47;;;;;;;108.50;59.13;;;;;;;;;;5072685;28;20029;-45
2021/06/02 08:04:13;;;;;;;57.00;27.60;;;;;;;;;;5072053;28;20039;-45
2021/06/02 08:06:39;;;;;;;63.90;28.52;;;;;;;;;;5072810;28;20027;-43
2021/06/02 08:09:06;;;;;;;19.48;7.65;;;;;;;;;;5072909;28;20100;-44
2021/06/02 08:11:33;;;;;;;45.55;18.83;;;;;;;;;;5072905;28;20017;-46
2021/06/02 08:13:59;;;;;;;102.75;44.25;;;;;;;;;;5072630;28;20031;-44
2021/06/02 08:16:25;;;;;;;52.83;20.38;;;;;;;;;;5072882;28;20029;-45
2021/06/02 08:18:52;;;;;;;84.30;36.22;;;;;;;;;;5072694;28;20427;-45
2021/06/02 08:21:19;;;;;;;35.78;10.43;;;;;;;;;;5072796;28;20479;-46
2021/06/02 08:23:45;;;;;;;21.05;11.38;;;;;;;;;;5072428;28;20036;-44
2021/06/02 08:26:11;;;;;;;12.18;5.80;;;;;;;;;;5076051;28;20020;-43
2021/06/02 08:28:37;;;;;;;9.88;3.53;;;;;;;;;;5076176;28;20032;-44
2021/06/02 08:31:03;;;;;;;19.50;9.93;;;;;;;;;;5076234;28;20073;-45
2021/06/02 08:33:29;;;;;;;24.20;14.07;;;;;;;;;;5076106;28;20407;-44
2021/06/02 08:35:55;;;;;;;12.10;6.50;;;;;;;;;;5075933;28;20034;-44
2021/06/02 08:38:21;;;;;;;12.85;5.90;;;;;;;;;;5075856;28;20024;-44
2021/06/02 08:40:47;;;;;;;9.35;3.50;;;;;;;;;;5076018;28;20074;-46
2021/06/02 08:43:14;;;;;;;8.43;5.22;;;;;;;;;;5076398;28;20102;-45
2021/06/02 08:45:40;;;;;;;7.88;4.28;;;;;;;;;;5075837;28;20031;-46
2021/06/02 08:48:06;;;;;;;11.07;2.67;;;;;;;;;;5075732;28;20025;-45
2021/06/02 08:50:32;;;;;;;6.13;3.20;;;;;;;;;;5075999;28;20036;-45
2021/06/02 08:53:03;;;;;;;5.00;2.78;;;;;;;;;;5075282;28;20121;-45
2021/06/02 08:55:29;;;;;;;6.13;2.57;;;;;;;;;;5075613;28;20035;-44
2021/06/02 08:57:55;;;;;;;6.45;3.08;;;;;;;;;;5075594;28;20287;-45
2021/06/02 09:00:23;;;;;;;20.10;4.72;;;;;;;;;;5075906;28;20480;-45
2021/06/02 09:02:53;;;;;;;6.45;2.95;;;;;;;;;;5075334;28;20077;-45
2021/06/02 09:05:20;;;;;;;6.65;2.40;;;;;;;;;;5075466;28;20051;-44
2021/06/02 09:07:48;;;;;;;8.85;2.50;;;;;;;;;;5075239;28;20195;-45
2021/06/02 09:10:15;;;;;;;9.27;3.60;;;;;;;;;;5075609;28;20052;-45
2021/06/02 09:12:42;;;;;;;6.05;2.38;;;;;;;;;;5075744;28;20100;-44
2021/06/02 09:15:16;;;;;;;5.07;2.13;;;;;;;;;;5075168;28;20477;-44
2021/06/02 09:17:49;;;;;;;13.85;5.97;;;;;;;;;;5075587;28;20373;-45
2021/06/02 09:20:31;;;;;;;32.15;21.92;;;;;;;;;;5074982;28;20039;-45
2021/06/02 09:22:57;;;;;;;12.90;7.60;;;;;;;;;;5075078;28;20495;-44
2021/06/02 09:25:23;;;;;;;26.85;16.95;;;;;;;;;;5075115;28;20115;-45
2021/06/02 09:27:57;;;;;;;19.83;10.90;;;;;;;;;;5075137;28;20087;-44
2021/06/02 09:30:37;;;;;;;9.07;4.88;;;;;;;;;;5074931;28;20028;-45
2021/06/02 09:33:03;;;;;;;6.57;5.20;;;;;;;;;;5074965;28;20074;-45
2021/06/02 09:35:35;;;;;;;18.45;12.00;;;;;;;;;;5074922;28;20150;-45
2021/06/02 09:38:01;;;;;;;11.70;6.38;;;;;;;;;;5074893;28;20052;-45
2021/06/02 09:40:32;;;;;;;40.95;21.20;;;;;;;;;;5074909;28;20047;-45
2021/06/02 09:42:58;;;;;;;67.55;41.60;;;;;;;;;;5056933;28;20510;-45
2021/06/02 09:45:25;;;;;;;13.38;8.18;;;;;;;;;;5074760;28;20369;-44
2021/06/02 09:47:52;;;;;;;27.88;11.52;;;;;;;;;;5074469;28;20029;-44
2021/06/02 09:50:30;;;;;;;6.88;4.10;;;;;;;;;;5074674;28;20032;-45
2021/06/02 09:52:56;;;;;;;25.20;15.50;;;;;;;;;;5074295;28;20064;-44
2021/06/02 09:55:24;;;;;;;6.60;4.10;;;;;;;;;;5074723;28;20024;-44
2021/06/02 09:57:55;;;;;;;17.65;4.75;;;;;;;;;;5074634;28;20501;-44
2021/06/02 10:00:22;;;;;;;15.43;7.57;;;;;;;;;;5074285;28;20024;-44
2021/06/02 10:03:01;;;;;;;11.15;3.72;;;;;;;;;;5074378;28;20036;-44
2021/06/02 10:05:35;;;;;;;16.70;9.65;;;;;;;;;;5074492;28;20027;-44
2021/06/02 10:08:01;;;;;;;16.20;8.57;;;;;;;;;;5074151;28;20021;-45
2021/06/02 10:10:27;;;;;;;19.92;10.40;;;;;;;;;;5074428;28;20021;-44
2021/06/02 10:12:57;;;;;;;6.50;2.58;;;;;;;;;;5074106;28;20032;-45
2021/06/02 10:15:31;;;;;;;33.53;21.80;;;;;;;;;;5074290;28;20021;-45
2021/06/02 10:17:57;;;;;;;15.85;9.57;;;;;;;;;;5074136;28;20171;-45
2021/06/02 10:20:26;;;;;;;30.70;14.55;;;;;;;;;;5074044;28;20380;-45
2021/06/02 10:22:57;;;;;;;26.38;16.40;;;;;;;;;;5073686;28;20513;-44
2021/06/02 10:25:24;;;;;;;14.38;8.90;;;;;;;;;;5074078;28;20044;-45
2021/06/02 10:27:54;;;;;;;34.22;26.35;;;;;;;;;;5073694;28;20032;-44
2021/06/02 10:30:22;;;;;;;18.67;12.97;;;;;;;;;;5073883;28;20025;-44
2021/06/02 10:32:49;;;;;;;17.65;12.02;;;;;;;;;;5073877;28;20017;-44
2021/06/02 10:35:15;;;;;;;11.85;6.68;;;;;;;;;;5073864;28;20028;-46
2021/06/02 10:37:43;;;;;;;10.82;6.40;;;;;;;;;;5073682;28;20099;-45
2021/06/02 10:40:13;;;;;;;11.52;6.88;;;;;;;;;;5073616;28;20074;-44
2021/06/02 10:42:41;;;;;;;24.75;17.23;;;;;;;;;;5073703;28;20074;-44
2021/06/02 10:45:20;;;;;;;10.30;3.80;;;;;;;;;;5073787;28;20099;-44
2021/06/02 10:47:53;;;;;;;21.08;14.70;;;;;;;;;;5072978;28;20137;-44
2021/06/02 10:50:28;;;;;;;11.45;7.63;;;;;;;;;;5073561;28;20040;-44
2021/06/02 10:52:54;;;;;;;23.23;15.25;;;;;;;;;;5073142;28;20048;-45
2021/06/02 10:55:42;;;;;;;10.93;4.70;;;;;;;;;;5073536;28;20020;-45
2021/06/02 10:58:27;;;;;;;20.40;11.60;;;;;;;;;;5073512;28;20024;-45
2021/06/02 11:01:09;;;;;;;30.20;11.95;;;;;;;;;;5055611;28;20017;-45
2021/06/02 11:03:36;;;;;;;127.72;12.95;;;;;;;;;;5073279;28;20037;-45
2021/06/02 11:06:15;;;;;;;245.98;24.90;;;;;;;;;;5073463;28;20039;-45
2021/06/02 11:08:53;;;;;;;76.80;22.50;;;;;;;;;;5073211;28;20070;-45
2021/06/02 11:11:25;;;;;;;59.38;10.50;;;;;;;;;;5073382;28;20029;-44
2021/06/02 11:14:10;;;;;;;145.25;13.68;;;;;;;;;;5073214;28;20139;-45
2021/06/02 11:16:37;;;;;;;133.88;43.03;;;;;;;;;;5073391;28;20017;-44
2021/06/02 11:19:11;;;;;;;111.65;11.25;;;;;;;;;;5073225;28;20039;-43
2021/06/02 11:21:43;;;;;;;79.85;11.05;;;;;;;;;;5073229;28;20029;-44
2021/06/02 11:24:28;;;;;;;40.53;22.80;;;;;;;;;;5073444;28;20034;-44
2021/06/02 11:26:54;;;;;;;15.48;3.70;;;;;;;;;;5073142;28;20031;-43
2021/06/02 11:29:20;;;;;;;19.95;10.20;;;;;;;;;;5073333;28;20465;-44
2021/06/02 11:31:55;;;;;;;34.05;20.23;;;;;;;;;;5073152;28;20037;-44
2021/06/02 11:34:28;;;;;;;39.78;21.20;;;;;;;;;;5073070;28;20013;-44
2021/06/02 11:37:00;;;;;;;23.48;13.32;;;;;;;;;;5073154;28;20104;-45
2021/06/02 11:39:26;;;;;;;22.75;12.77;;;;;;;;;;5073451;28;20023;-44
2021/06/02 11:41:57;;;;;;;12.18;6.97;;;;;;;;;;5073164;28;20021;-44
2021/06/02 11:44:26;;;;;;;7.15;5.18;;;;;;;;;;5073143;28;20112;-44
2021/06/02 11:46:52;;;;;;;8.65;3.78;;;;;;;;;;5072957;28;20043;-43
2021/06/02 11:49:28;;;;;;;24.08;13.60;;;;;;;;;;5073002;28;20070;-44
2021/06/02 11:51:58;;;;;;;8.38;5.38;;;;;;;;;;5072758;28;20048;-44
2021/06/02 11:54:25;;;;;;;25.25;14.77;;;;;;;;;;5072889;28;20029;-45
2021/06/02 11:56:51;;;;;;;8.90;4.28;;;;;;;;;;5073091;28;20475;-44
2021/06/02 11:59:17;;;;;;;17.55;9.98;;;;;;;;;;5073544;28;20536;-43
2021/06/02 12:01:43;;;;;;;17.90;11.70;;;;;;;;;;5075730;28;20027;-44
2021/06/02 12:04:09;;;;;;;33.40;20.45;;;;;;;;;;5076470;28;20166;-44
2021/06/02 12:06:37;;;;;;;12.95;6.75;;;;;;;;;;5076831;28;20021;-44
2021/06/02 12:09:09;;;;;;;9.98;4.47;;;;;;;;;;5076110;28;20019;-45
2021/06/02 12:11:35;;;;;;;15.43;10.00;;;;;;;;;;5076880;28;20376;-45
2021/06/02 12:14:01;;;;;;;9.07;3.83;;;;;;;;;;5076470;28;20031;-45
2021/06/02 12:16:27;;;;;;;14.70;7.95;;;;;;;;;;5076419;28;20461;-44
2021/06/02 12:18:58;;;;;;;41.22;25.65;;;;;;;;;;5076372;28;20169;-44
2021/06/02 12:21:28;;;;;;;32.22;13.25;;;;;;;;;;5076267;28;20454;-45
2021/06/02 12:23:54;;;;;;;25.65;15.00;;;;;;;;;;5076287;28;20064;-44
2021/06/02 12:26:26;;;;;;;35.28;20.10;;;;;;;;;;5076155;28;20028;-44
2021/06/02 12:28:53;;;;;;;21.58;10.35;;;;;;;;;;5076140;28;20016;-45
2021/06/02 12:31:46;;;;;;;67.10;41.40;;;;;;;;;;5075176;28;20488;-45
2021/06/02 12:34:18;;;;;;;25.27;6.90;;;;;;;;;;5051368;28;20040;-45
2021/06/02 12:36:48;;;;;;;105.97;72.45;;;;;;;;;;5075216;28;20033;-45
2021/06/02 12:39:15;;;;;;;103.30;71.28;;;;;;;;;;5074800;28;20546;-46
2021/06/02 12:41:42;;;;;;;87.82;61.20;;;;;;;;;;5075071;28;20031;-43
2021/06/02 12:44:09;;;;;;;11.85;7.00;;;;;;;;;;5075488;28;20119;-44
2021/06/02 12:46:35;;;;;;;30.13;21.98;;;;;;;;;;5075748;28;20032;-44
2021/06/02 12:49:05;;;;;;;8.50;4.65;;;;;;;;;;5075716;28;20032;-45
2021/06/02 12:51:31;;;;;;;6.22;4.28;;;;;;;;;;5075503;28;20113;-44
2021/06/02 12:53:57;;;;;;;9.48;4.13;;;;;;;;;;5075335;28;20111;-44
2021/06/02 12:56:24;;;;;;;54.05;34.88;;;;;;;;;;5075409;28;20044;-44
2021/06/02 12:58:51;;;;;;;28.45;15.63;;;;;;;;;;5075322;28;20400;-44
2021/06/02 13:01:17;;;;;;;64.25;41.35;;;;;;;;;;5075615;28;20021;-44
2021/06/02 13:03:54;;;;;;;7.50;3.40;;;;;;;;;;5075201;28;20025;-45
2021/06/02 13:06:21;;;;;;;32.60;19.80;;;;;;;;;;5075194;28;20103;-46
2021/06/02 13:08:48;;;;;;;18.00;11.48;;;;;;;;;;5075131;28;20388;-44
2021/06/02 13:11:16;;;;;;;24.02;13.55;;;;;;;;;;5074992;28;20039;-45
2021/06/02 13:13:47;;;;;;;26.95;16.23;;;;;;;;;;5057119;28;20032;-44
2021/06/02 13:16:13;;;;;;;23.43;15.07;;;;;;;;;;5075133;28;20407;-44
2021/06/02 13:18:39;;;;;;;44.83;29.73;;;;;;;;;;5075083;28;20024;-44
2021/06/02 13:21:12;;;;;;;28.40;16.38;;;;;;;;;;5074777;28;20071;-44
2021/06/02 13:23:39;;;;;;;20.65;11.80;;;;;;;;;;5074866;28;20473;-44
2021/06/02 13:26:09;;;;;;;30.55;18.00;;;;;;;;;;5074896;28;20446;-44
2021/06/02 13:28:43;;;;;;;12.38;6.22;;;;;;;;;;5075042;28;20021;-44
2021/06/02 13:31:10;;;;;;;31.00;18.35;;;;;;;;;;5074757;28;20163;-45
2021/06/02 13:33:37;;;;;;;23.30;15.93;;;;;;;;;;5074843;28;20383;-43
2021/06/02 13:36:05;;;;;;;6.72;5.50;;;;;;;;;;5074843;28;20495;-43
2021/06/02 13:38:31;;;;;;;30.42;20.08;;;;;;;;;;5074432;28;20024;-46
2021/06/02 13:40:58;;;;;;;25.13;16.35;;;;;;;;;;5074492;28;20024;-45
2021/06/02 13:43:24;;;;;;;22.02;15.90;;;;;;;;;;5074682;28;20024;-45
2021/06/02 13:45:51;;;;;;;42.28;26.30;;;;;;;;;;5074612;28;20044;-47
2021/06/02 13:48:25;;;;;;;46.72;33.92;;;;;;;;;;5074358;28;20029;-46
2021/06/02 13:50:52;;;;;;;35.20;19.85;;;;;;;;;;5074189;28;20468;-45
2021/06/02 13:53:18;;;;;;;32.33;20.35;;;;;;;;;;5074350;28;20379;-44
2021/06/02 13:55:54;;;;;;;66.80;44.60;;;;;;;;;;5074184;28;20021;-44
2021/06/02 13:58:20;;;;;;;37.58;23.15;;;;;;;;;;5074109;28;20086;-45
2021/06/02 14:00:47;;;;;;;43.53;29.50;;;;;;;;;;5074495;28;20077;-46
2021/06/02 14:03:13;;;;;;;36.17;23.13;;;;;;;;;;5074218;28;20478;-46
2021/06/02 14:05:39;;;;;;;22.83;15.65;;;;;;;;;;5074138;28;20017;-44
2021/06/02 14:08:05;;;;;;;157.85;107.22;;;;;;;;;;5073840;28;20032;-46
2021/06/02 14:10:31;;;;;;;29.00;19.55;;;;;;;;;;5073672;28;20052;-45
2021/06/02 14:12:59;;;;;;;25.77;15.70;;;;;;;;;;5073882;28;20032;-45
2021/06/02 14:15:27;;;;;;;229.40;160.68;;;;;;;;;;5073959;28;20021;-45
2021/06/02 14:17:53;;;;;;;47.90;32.33;;;;;;;;;;5073800;28;20028;-45
2021/06/02 14:20:19;;;;;;;78.88;53.00;;;;;;;;;;5073714;28;20456;-45
2021/06/02 14:22:45;;;;;;;175.65;124.93;;;;;;;;;;5072907;28;20093;-46
2021/06/02 14:25:16;;;;;;;93.22;63.38;;;;;;;;;;5073887;28;20032;-45
2021/06/02 14:27:42;;;;;;;18.48;12.77;;;;;;;;;;5073715;28;20021;-44
2021/06/02 14:30:09;;;;;;;54.55;36.53;;;;;;;;;;5073768;28;20028;-44
2021/06/02 14:32:35;;;;;;;13.32;9.68;;;;;;;;;;5073596;28;20052;-45
2021/06/02 14:35:01;;;;;;;28.83;19.98;;;;;;;;;;5073655;28;20017;-44
2021/06/02 14:37:27;;;;;;;32.58;14.32;;;;;;;;;;5073237;28;20036;-42
2021/06/02 14:39:56;;;;;;;17.95;12.63;;;;;;;;;;5073335;28;20159;-44
2021/06/02 14:42:22;;;;;;;109.13;74.18;;;;;;;;;;5069352;28;20033;-45
2021/06/02 14:44:48;;;;;;;56.65;33.95;;;;;;;;;;5073130;28;20041;-45
2021/06/02 14:47:15;;;;;;;65.80;41.20;;;;;;;;;;5054969;28;20469;-45
2021/06/02 14:49:41;;;;;;;52.60;34.45;;;;;;;;;;5073449;28;20047;-44
2021/06/02 14:52:07;;;;;;;39.55;26.50;;;;;;;;;;5073198;28;20040;-43